Time;durP1;ratioP1;P1;durP2;ratioP2;P2;SDS_P1;SDS_P2;PMS_P1;PMS_P2;Temp;Humidity;BMP_temperature;BMP_pressure;BME280_temperature;BME280_humidity;BME280_pressure;Samples;Min_cycle;Max_cycle;Signal;HPM_P1;HPM_P2
2022/01/25 00:24:33;;;;;;;2.53;2.33;;;17.20;59.00;;;;;;5031437;28;20036;-69
2022/01/25 00:32:11;;;;;;;2.92;2.63;;;17.20;59.00;;;;;;5051331;28;20041;-69
2022/01/25 00:34:37;;;;;;;4.05;2.55;;;17.20;59.00;;;;;;5051136;28;20028;-69
2022/01/25 00:37:03;;;;;;;2.97;2.67;;;17.30;59.00;;;;;;5051059;28;20037;-69
2022/01/25 00:39:29;;;;;;;2.72;2.53;;;17.30;59.00;;;;;;5050961;28;20534;-69
2022/01/25 00:41:54;;;;;;;2.58;2.38;;;17.30;59.00;;;;;;5051428;28;20041;-69
2022/01/25 00:44:20;;;;;;;3.25;2.88;;;17.30;59.00;;;;;;5051103;28;20095;-68
2022/01/25 00:46:46;;;;;;;3.35;2.47;;;17.30;59.00;;;;;;5051194;28;20029;-69
2022/01/25 00:49:20;;;;;;;4.05;2.85;;;17.30;59.00;;;;;;5050738;28;20032;-69
2022/01/25 00:56:40;;;;;;;2.60;2.40;;;17.30;59.00;;;;;;5071914;28;20028;-68
2022/01/25 00:59:07;;;;;;;3.15;2.85;;;17.30;59.00;;;;;;5072890;28;20025;-68
2022/01/25 01:01:33;;;;;;;4.50;2.90;;;17.30;59.00;;;;;;5071782;28;20553;-68
2022/01/25 01:03:59;;;;;;;3.50;2.50;;;17.30;59.00;;;;;;5071589;28;20028;-68
2022/01/25 01:06:25;;;;;;;2.83;2.63;;;17.30;59.00;;;;;;5071747;28;20150;-68
2022/01/25 01:08:50;;;;;;;3.45;3.08;;;17.30;59.00;;;;;;5071631;28;20020;-68
2022/01/25 01:11:18;;;;;;;8.40;2.95;;;17.30;59.00;;;;;;5072924;28;20028;-68
2022/01/25 01:35:30;;;;;;;2.88;2.67;;;17.30;59.10;;;;;;5091526;28;20028;-69
2022/01/25 01:40:48;;;;;;;3.75;3.25;;;17.30;59.20;;;;;;5091758;28;20028;-68
2022/01/25 01:51:31;;;;;;;3.00;2.78;;;17.30;59.20;;;;;;5091189;28;20032;-68
2022/01/25 01:53:59;;;;;;;2.70;2.45;;;17.20;59.10;;;;;;5092503;28;20020;-69
2022/01/25 01:56:25;;;;;;;3.45;3.00;;;17.20;59.10;;;;;;5091204;28;20074;-69
2022/01/25 01:58:51;;;;;;;3.22;2.92;;;17.20;59.10;;;;;;5091448;28;20028;-69
2022/01/25 02:01:17;;;;;;;3.75;3.42;;;17.20;59.10;;;;;;5090931;28;20443;-69
2022/01/25 02:03:43;;;;;;;3.40;2.90;;;17.30;59.20;;;;;;5091046;28;20103;-69
2022/01/25 02:06:08;;;;;;;4.20;3.17;;;17.20;59.10;;;;;;5091140;28;20024;-69
2022/01/25 02:08:34;;;;;;;3.50;3.20;;;17.30;59.20;;;;;;5092238;28;20146;-68
2022/01/25 02:11:03;;;;;;;3.60;3.30;;;17.20;59.10;;;;;;5091083;28;20439;-68
2022/01/25 02:13:29;;;;;;;3.22;2.92;;;17.30;59.10;;;;;;5090982;28;20513;-68
2022/01/25 02:15:56;;;;;;;3.55;3.22;;;17.30;59.20;;;;;;5091910;28;20020;-68
2022/01/25 02:23:32;;;;;;;3.20;2.90;;;17.20;59.10;;;;;;5070953;28;20040;-68
2022/01/25 02:25:59;;;;;;;3.38;3.10;;;17.20;59.10;;;;;;5072045;28;20020;-68
2022/01/25 02:28:27;;;;;;;4.05;2.70;;;17.20;59.10;;;;;;5088340;28;20036;-68
2022/01/25 02:30:53;;;;;;;4.43;3.20;;;17.20;59.10;;;;;;5090558;28;20025;-68
2022/01/25 02:33:19;;;;;;;3.55;3.25;;;17.30;59.20;;;;;;5090827;28;20024;-68
2022/01/25 02:35:45;;;;;;;3.95;3.20;;;17.20;59.10;;;;;;5090820;28;20031;-68
2022/01/25 02:38:12;;;;;;;3.17;2.88;;;17.20;59.10;;;;;;5090833;28;20038;-68
2022/01/25 02:40:38;;;;;;;4.30;2.88;;;17.20;59.10;;;;;;5090873;28;20020;-68
2022/01/25 02:43:03;;;;;;;3.47;2.88;;;17.30;59.20;;;;;;5091998;28;20451;-68
2022/01/25 02:45:34;;;;;;;4.35;3.05;;;17.20;59.10;;;;;;5090265;28;20031;-68
2022/01/25 02:50:44;;;;;;;3.88;3.00;;;17.20;59.10;;;;;;5080819;28;20066;-68
2022/01/25 02:53:09;;;;;;;3.55;3.08;;;17.20;59.20;;;;;;5078991;28;20382;-68
2022/01/25 02:55:35;;;;;;;3.40;2.83;;;17.30;59.20;;;;;;5090527;28;20058;-68
2022/01/25 02:58:01;;;;;;;3.65;3.35;;;17.20;59.20;;;;;;5075498;28;20023;-68
2022/01/25 03:00:26;;;;;;;3.28;3.00;;;17.30;59.30;;;;;;5082811;28;20056;-69
2022/01/25 03:02:52;;;;;;;3.22;2.95;;;17.30;59.20;;;;;;5084762;28;20066;-69
2022/01/25 03:05:17;;;;;;;3.67;3.38;;;17.30;59.20;;;;;;5079366;28;20024;-69
2022/01/25 03:07:44;;;;;;;3.50;3.20;;;17.20;59.20;;;;;;5090233;28;20035;-69
2022/01/25 03:10:10;;;;;;;3.58;3.28;;;17.20;59.10;;;;;;5078647;28;20020;-69
2022/01/25 03:12:47;;;;;;;3.70;3.10;;;17.30;59.20;;;;;;5085094;28;20027;-69
2022/01/25 03:17:48;;;;;;;4.13;3.42;;;17.30;59.20;;;;;;5076646;28;20025;-69
2022/01/25 03:20:33;;;;;;;3.50;3.20;;;17.30;59.20;;;;;;5090515;28;20062;-69
2022/01/25 03:23:05;;;;;;;4.05;3.58;;;17.20;59.20;;;;;;5093515;28;20070;-69
2022/01/25 03:25:30;;;;;;;3.40;3.10;;;17.30;59.30;;;;;;5087170;28;20024;-69
2022/01/25 03:27:57;;;;;;;4.03;3.10;;;17.20;59.20;;;;;;5078097;28;20040;-69
2022/01/25 03:30:25;;;;;;;3.42;3.13;;;17.20;59.20;;;;;;5073388;28;20023;-69
2022/01/25 03:32:51;;;;;;;3.38;2.97;;;17.20;59.20;;;;;;5073052;28;20028;-69
2022/01/25 03:35:17;;;;;;;3.17;2.88;;;17.30;59.30;;;;;;5073470;28;20116;-68
2022/01/25 03:37:42;;;;;;;3.35;3.05;;;17.30;59.30;;;;;;5073275;28;20024;-68
2022/01/25 03:40:09;;;;;;;3.25;2.95;;;17.30;59.30;;;;;;5073431;28;20391;-69
2022/01/25 03:42:37;;;;;;;3.88;3.17;;;17.30;59.30;;;;;;5074091;28;20029;-69
2022/01/25 03:45:04;;;;;;;3.70;3.15;;;17.20;59.10;;;;;;5073215;28;20056;-68
2022/01/25 03:47:43;;;;;;;3.83;3.42;;;17.30;59.20;;;;;;5073300;28;20039;-68
2022/01/25 03:50:09;;;;;;;3.75;2.88;;;17.30;59.20;;;;;;5074206;28;20016;-69
2022/01/25 03:52:36;;;;;;;3.42;3.13;;;17.30;59.30;;;;;;5073045;28;20540;-68
2022/01/25 03:55:02;;;;;;;3.50;3.20;;;17.30;59.20;;;;;;5074295;28;20386;-69
2022/01/25 03:57:28;;;;;;;4.65;3.20;;;17.30;59.40;;;;;;5072693;28;20082;-68
2022/01/25 03:59:57;;;;;;;3.45;3.15;;;17.20;59.20;;;;;;5073035;28;20021;-68
2022/01/25 04:02:23;;;;;;;3.92;3.58;;;17.20;59.20;;;;;;5073037;28;20099;-68
2022/01/25 04:04:50;;;;;;;3.65;3.35;;;17.30;59.30;;;;;;5072815;28;20027;-69
2022/01/25 04:07:25;;;;;;;3.40;3.10;;;17.20;59.20;;;;;;5074251;28;20052;-69
2022/01/25 04:09:51;;;;;;;3.20;3.00;;;17.30;59.30;;;;;;5072868;28;20070;-69
2022/01/25 04:12:17;;;;;;;3.50;3.20;;;17.20;59.20;;;;;;5071719;28;20028;-69
2022/01/25 04:14:43;;;;;;;3.45;3.15;;;17.20;59.20;;;;;;5072683;28;20044;-69
2022/01/25 04:17:11;;;;;;;3.63;3.33;;;17.20;59.20;;;;;;5074269;28;20056;-69
2022/01/25 04:19:45;;;;;;;3.30;3.00;;;17.20;59.20;;;;;;5073645;28;20107;-69
2022/01/25 04:27:29;;;;;;;3.97;3.00;;;17.30;59.20;;;;;;5081908;28;20035;-68
2022/01/25 04:29:55;;;;;;;3.33;3.03;;;17.20;59.20;;;;;;5092686;28;20024;-68
2022/01/25 04:32:23;;;;;;;3.13;2.83;;;17.20;59.20;;;;;;5092602;28;20035;-68
2022/01/25 04:35:10;;;;;;;3.50;3.20;;;17.20;59.30;;;;;;5092619;28;20016;-68
2022/01/25 04:51:32;;;;;;;3.80;3.10;;;17.20;59.30;;;;;;5092729;28;20520;-68
2022/01/25 04:59:32;;;;;;;3.35;3.05;;;17.20;59.30;;;;;;5051083;28;20431;-68
2022/01/25 05:02:10;;;;;;;3.20;2.90;;;17.20;59.30;;;;;;5036532;28;20121;-68
2022/01/25 05:04:42;;;;;;;2.72;2.53;;;17.20;60.30;;;;;;5035829;28;20033;-68
2022/01/25 05:07:47;;;;;;;3.05;2.78;;;17.20;59.40;;;;;;5050832;28;20423;-68
2022/01/25 05:10:02;;;;;;;3.00;2.80;;;17.20;59.30;;;;;;5032267;28;20511;-68
2022/01/25 05:15:59;;;;;;;2.92;2.72;;;17.20;59.30;;;;;;4971786;28;20038;-68
2022/01/25 05:18:15;;;;;;;3.05;2.75;;;17.20;59.30;;;;;;4971763;28;20022;-68
2022/01/25 05:23:25;;;;;;;2.85;2.60;;;17.20;59.30;;;;;;4971850;28;20071;-68
2022/01/25 05:25:51;;;;;;;2.97;2.75;;;17.20;59.30;;;;;;4970677;28;20035;-68
2022/01/25 05:28:16;;;;;;;3.20;2.90;;;17.20;59.30;;;;;;4958940;28;20050;-68
2022/01/25 05:30:42;;;;;;;3.35;3.15;;;17.20;59.30;;;;;;4971937;28;20520;-68
2022/01/25 05:33:08;;;;;;;3.33;2.70;;;17.20;59.30;;;;;;4971574;28;20118;-68
2022/01/25 05:35:33;;;;;;;2.92;2.70;;;17.20;59.30;;;;;;4971588;28;20038;-68
2022/01/25 05:37:59;;;;;;;3.30;3.00;;;17.20;59.30;;;;;;4971559;28;20039;-68
2022/01/25 05:40:46;;;;;;;2.70;2.50;;;17.20;59.30;;;;;;4971662;28;20041;-68
2022/01/25 05:48:26;;;;;;;3.30;3.00;;;17.20;59.30;;;;;;4971387;28;20494;-68
2022/01/25 05:50:52;;;;;;;3.50;2.97;;;17.20;59.30;;;;;;4978833;28;20547;-68
2022/01/25 05:53:18;;;;;;;3.15;2.95;;;17.20;59.30;;;;;;5030886;28;20017;-68
2022/01/25 05:55:43;;;;;;;2.95;2.75;;;17.20;59.30;;;;;;5030976;28;20476;-68
2022/01/25 05:58:09;;;;;;;3.42;3.20;;;17.20;59.30;;;;;;5030881;28;20025;-68
2022/01/25 06:00:35;;;;;;;3.55;3.25;;;17.20;59.30;;;;;;5032285;28;20029;-68
2022/01/25 06:03:01;;;;;;;3.22;2.97;;;17.20;59.30;;;;;;5032188;28;20293;-68
2022/01/25 06:05:27;;;;;;;2.65;2.45;;;17.20;59.30;;;;;;5032172;28;20112;-68
2022/01/25 06:07:53;;;;;;;2.65;2.45;;;17.20;59.30;;;;;;5031953;28;20092;-68
2022/01/25 06:10:18;;;;;;;3.15;2.85;;;17.20;59.30;;;;;;5031915;28;20025;-68
2022/01/25 06:12:45;;;;;;;3.90;3.20;;;17.20;59.30;;;;;;5032097;28;20025;-68
2022/01/25 06:15:11;;;;;;;3.15;2.85;;;17.20;59.30;;;;;;5030853;28;20033;-68
2022/01/25 06:17:37;;;;;;;3.50;2.65;;;17.20;59.30;;;;;;5030839;28;20026;-68
2022/01/25 06:20:04;;;;;;;3.85;2.97;;;17.20;59.30;;;;;;5031980;28;20480;-68
2022/01/25 06:22:30;;;;;;;2.65;2.45;;;17.20;59.30;;;;;;5030502;28;20068;-68
2022/01/25 06:24:55;;;;;;;5.40;2.97;;;17.20;59.30;;;;;;5032108;28;20033;-68
2022/01/25 06:27:21;;;;;;;3.00;2.70;;;17.20;59.40;;;;;;5039359;28;20020;-68
2022/01/25 06:29:47;;;;;;;2.67;2.47;;;17.20;59.40;;;;;;5090517;28;20055;-68
2022/01/25 06:32:13;;;;;;;4.35;3.08;;;17.20;59.30;;;;;;5091828;28;20028;-68
2022/01/25 06:34:39;;;;;;;3.00;2.70;;;17.20;59.30;;;;;;5091032;28;20389;-68
2022/01/25 06:37:04;;;;;;;3.00;2.70;;;17.20;59.40;;;;;;5093406;28;20051;-68
2022/01/25 06:39:30;;;;;;;2.95;2.75;;;17.20;59.30;;;;;;5096093;28;20106;-68
2022/01/25 06:41:56;;;;;;;3.08;2.65;;;17.20;60.30;;;;;;5094782;28;20017;-68
2022/01/25 06:44:21;;;;;;;3.13;2.83;;;17.20;59.30;;;;;;5094814;28;20039;-68
2022/01/25 06:46:47;;;;;;;3.00;2.80;;;17.20;59.30;;;;;;5095694;28;20020;-68
2022/01/25 06:49:13;;;;;;;3.28;2.92;;;17.20;59.40;;;;;;5094616;28;20474;-68
2022/01/25 06:51:40;;;;;;;2.92;2.45;;;17.20;59.40;;;;;;5077958;28;20020;-68
2022/01/25 06:54:06;;;;;;;3.65;2.78;;;17.20;59.30;;;;;;5075026;28;20031;-68
2022/01/25 06:56:31;;;;;;;2.60;2.40;;;17.20;59.40;;;;;;5073074;28;20399;-68
2022/01/25 06:58:57;;;;;;;3.00;2.50;;;17.20;59.50;;;;;;5074137;28;20485;-68
2022/01/25 07:01:23;;;;;;;2.50;2.30;;;17.20;59.50;;;;;;5074422;28;20016;-68
2022/01/25 07:03:48;;;;;;;2.35;2.15;;;17.20;59.50;;;;;;5078802;28;20456;-68
2022/01/25 07:06:14;;;;;;;3.17;2.72;;;17.20;60.50;;;;;;5091891;28;20440;-68
2022/01/25 07:08:41;;;;;;;3.97;2.70;;;17.20;59.40;;;;;;5093362;28;20039;-68
2022/01/25 07:11:07;;;;;;;2.35;2.15;;;17.20;59.40;;;;;;5075859;28;20126;-68
2022/01/25 07:13:32;;;;;;;3.28;2.97;;;17.20;59.50;;;;;;5074082;28;20024;-68
2022/01/25 07:15:58;;;;;;;2.95;2.75;;;17.20;59.40;;;;;;5073847;28;20024;-68
2022/01/25 07:18:24;;;;;;;3.25;3.00;;;17.20;59.20;;;;;;5073572;28;20031;-68
2022/01/25 07:20:49;;;;;;;5.13;3.35;;;17.20;59.10;;;;;;5074644;28;20021;-67
2022/01/25 07:23:15;;;;;;;3.20;3.00;;;17.20;59.10;;;;;;5085301;28;20443;-68
2022/01/25 07:25:41;;;;;;;3.38;3.08;;;17.10;59.00;;;;;;5079732;28;20047;-67
2022/01/25 07:28:06;;;;;;;3.17;2.97;;;17.10;59.00;;;;;;5077790;28;20048;-67
2022/01/25 07:30:32;;;;;;;2.85;2.65;;;17.10;59.10;;;;;;5090606;28;20055;-67
2022/01/25 07:32:57;;;;;;;3.00;2.75;;;17.10;59.10;;;;;;5081112;28;20134;-67
2022/01/25 07:35:23;;;;;;;2.63;2.42;;;17.10;59.00;;;;;;5081805;28;20465;-67
2022/01/25 07:37:49;;;;;;;2.92;2.70;;;17.10;59.00;;;;;;5089592;28;20020;-67
2022/01/25 07:40:16;;;;;;;3.00;2.70;;;17.10;58.90;;;;;;5077546;28;20025;-67
2022/01/25 07:42:42;;;;;;;2.40;2.20;;;17.10;58.90;;;;;;5089144;28;20032;-67
2022/01/25 07:45:10;;;;;;;3.05;2.83;;;17.10;58.90;;;;;;5082326;28;20024;-67
2022/01/25 07:47:36;;;;;;;3.25;2.95;;;17.10;58.90;;;;;;5079551;28;20028;-67
2022/01/25 07:50:03;;;;;;;3.50;2.97;;;17.10;58.90;;;;;;5093188;28;20020;-67
2022/01/25 07:52:29;;;;;;;9.00;3.17;;;17.10;58.80;;;;;;5094168;28;20127;-67
2022/01/25 07:54:54;;;;;;;8.20;3.75;;;17.10;58.80;;;;;;5093790;28;20099;-67
2022/01/25 07:57:20;;;;;;;5.72;3.38;;;17.10;58.80;;;;;;5094804;28;20069;-67
2022/01/25 07:59:46;;;;;;;7.97;3.92;;;17.10;58.90;;;;;;5093180;28;20410;-67
2022/01/25 08:02:15;;;;;;;5.95;3.60;;;17.10;58.80;;;;;;5094414;28;20035;-67
2022/01/25 08:04:41;;;;;;;8.43;3.53;;;17.10;59.80;;;;;;5092882;28;20020;-67
2022/01/25 08:07:06;;;;;;;4.72;3.50;;;17.10;58.80;;;;;;5094221;28;20035;-67
2022/01/25 08:09:32;;;;;;;9.15;4.03;;;17.10;58.80;;;;;;5093025;28;20013;-67
2022/01/25 08:11:58;;;;;;;5.78;3.33;;;17.10;58.80;;;;;;5085627;28;20028;-67
2022/01/25 08:14:23;;;;;;;6.57;3.45;;;17.10;58.80;;;;;;5076143;28;20063;-67
2022/01/25 08:16:50;;;;;;;7.10;3.22;;;17.10;58.90;;;;;;5092839;28;20403;-67
2022/01/25 08:19:16;;;;;;;7.05;3.53;;;17.10;58.70;;;;;;5084996;28;20095;-67
2022/01/25 08:21:41;;;;;;;5.30;3.30;;;17.10;58.70;;;;;;5072637;28;20032;-67
2022/01/25 08:24:11;;;;;;;6.95;3.67;;;17.10;58.70;;;;;;5072571;28;20024;-67
2022/01/25 08:26:37;;;;;;;6.00;3.70;;;17.10;58.70;;;;;;5072599;28;20035;-67
2022/01/25 08:29:03;;;;;;;4.57;3.38;;;17.10;58.70;;;;;;5090207;28;20049;-67
2022/01/25 08:31:29;;;;;;;5.07;3.38;;;17.10;58.70;;;;;;5092481;28;20040;-67
2022/01/25 08:33:54;;;;;;;6.20;3.03;;;17.10;58.60;;;;;;5093755;28;20498;-67
2022/01/25 08:36:20;;;;;;;4.68;3.00;;;17.10;58.60;;;;;;5092399;28;20020;-67
2022/01/25 08:38:46;;;;;;;5.95;3.08;;;17.10;58.60;;;;;;5092767;28;20133;-67
2022/01/25 08:41:12;;;;;;;4.85;3.03;;;17.10;58.60;;;;;;5093603;28;20043;-67
2022/01/25 08:43:37;;;;;;;5.32;3.28;;;17.10;58.60;;;;;;5092511;28;20024;-67
2022/01/25 08:46:03;;;;;;;3.80;3.20;;;17.10;58.60;;;;;;5074947;28;20036;-67
2022/01/25 08:48:29;;;;;;;5.35;2.80;;;17.10;58.60;;;;;;5072862;28;20051;-67
2022/01/25 08:50:54;;;;;;;3.88;2.92;;;17.10;58.50;;;;;;5072128;28;20040;-67
2022/01/25 08:53:20;;;;;;;4.97;2.70;;;17.10;58.50;;;;;;5071916;28;20020;-67
2022/01/25 08:55:45;;;;;;;5.80;3.13;;;17.10;58.50;;;;;;5073217;28;20028;-67
2022/01/25 08:58:11;;;;;;;4.05;3.10;;;17.00;58.40;;;;;;5072972;28;20021;-67
2022/01/25 09:00:37;;;;;;;6.50;3.00;;;17.00;58.40;;;;;;5055402;28;20376;-67
2022/01/25 09:03:02;;;;;;;4.78;3.00;;;17.00;58.40;;;;;;5071513;28;20525;-67
2022/01/25 09:05:28;;;;;;;4.15;2.95;;;17.00;58.40;;;;;;5071648;28;20395;-67
2022/01/25 09:07:56;;;;;;;4.57;2.95;;;17.00;58.40;;;;;;5073029;28;20487;-67
2022/01/25 09:10:22;;;;;;;3.40;2.85;;;17.00;58.30;;;;;;5071572;28;20028;-67
2022/01/25 09:12:48;;;;;;;4.32;2.67;;;17.00;58.30;;;;;;5071679;28;20031;-67
2022/01/25 09:15:13;;;;;;;4.05;2.70;;;17.00;58.30;;;;;;5072837;28;20031;-67
2022/01/25 09:17:39;;;;;;;4.28;2.80;;;17.00;58.30;;;;;;5072343;28;20020;-67
2022/01/25 09:20:05;;;;;;;3.90;3.05;;;17.00;58.60;;;;;;5089323;28;20469;-67
2022/01/25 09:22:31;;;;;;;4.65;2.75;;;17.00;59.30;;;;;;5091575;28;20035;-67
2022/01/25 09:24:56;;;;;;;4.43;2.72;;;17.00;58.20;;;;;;5091709;28;20036;-67
2022/01/25 09:27:22;;;;;;;4.00;2.70;;;17.00;58.20;;;;;;5091628;28;20043;-67
2022/01/25 09:29:47;;;;;;;3.15;2.50;;;17.00;58.20;;;;;;5091395;28;20468;-67
2022/01/25 09:32:13;;;;;;;3.88;2.63;;;17.00;58.10;;;;;;5092447;28;20161;-67
2022/01/25 09:34:39;;;;;;;8.70;2.70;;;17.00;58.10;;;;;;5091718;28;20034;-67
2022/01/25 09:37:04;;;;;;;4.05;2.95;;;17.00;58.10;;;;;;5091412;28;20024;-67
2022/01/25 09:39:30;;;;;;;4.78;3.13;;;17.00;58.10;;;;;;5091450;28;20102;-67
2022/01/25 09:41:56;;;;;;;4.40;3.20;;;17.00;58.10;;;;;;5092737;28;20081;-67
2022/01/25 09:44:23;;;;;;;2.72;2.50;;;17.00;58.10;;;;;;5091490;28;20466;-67
2022/01/25 09:46:56;;;;;;;3.80;3.00;;;17.00;58.10;;;;;;5091152;28;20020;-67
2022/01/25 09:49:22;;;;;;;3.50;2.85;;;17.00;58.10;;;;;;5091484;28;20028;-67
2022/01/25 09:51:48;;;;;;;4.05;2.90;;;17.00;58.00;;;;;;5092529;28;20035;-67
2022/01/25 09:54:14;;;;;;;3.58;2.60;;;17.00;58.00;;;;;;5091202;28;20020;-67
2022/01/25 09:56:40;;;;;;;3.13;2.42;;;17.00;58.00;;;;;;5091498;28;20023;-67
2022/01/25 09:59:06;;;;;;;3.92;2.97;;;17.00;57.90;;;;;;5091043;28;20095;-67
2022/01/25 10:01:32;;;;;;;3.33;2.47;;;17.00;57.90;;;;;;5091124;28;20054;-67
2022/01/25 10:04:03;;;;;;;3.38;2.63;;;17.00;57.90;;;;;;5092478;28;20569;-67
2022/01/25 10:06:33;;;;;;;3.90;2.63;;;17.00;57.90;;;;;;5075132;28;20398;-67
2022/01/25 10:08:58;;;;;;;3.90;3.05;;;17.00;57.90;;;;;;5091438;28;20023;-67
2022/01/25 10:11:25;;;;;;;4.78;2.78;;;17.00;57.90;;;;;;5087587;28;20074;-67
2022/01/25 10:13:56;;;;;;;3.90;2.88;;;17.00;57.90;;;;;;5074918;28;20023;-67
2022/01/25 10:16:33;;;;;;;4.40;2.90;;;17.00;57.80;;;;;;5075039;28;20046;-67
2022/01/25 10:19:03;;;;;;;4.03;3.00;;;17.00;57.70;;;;;;5065403;28;20032;-67
2022/01/25 10:21:49;;;;;;;3.03;2.40;;;17.00;57.90;;;;;;5096320;28;20547;-67
2022/01/25 10:24:24;;;;;;;2.60;2.30;;;17.00;57.60;;;;;;5096420;28;20474;-67
2022/01/25 10:26:52;;;;;;;2.75;2.53;;;16.90;57.70;;;;;;5095262;28;20016;-67
2022/01/25 10:29:23;;;;;;;3.33;2.67;;;17.00;57.80;;;;;;5094639;28;20048;-67
2022/01/25 10:31:52;;;;;;;3.63;2.88;;;17.00;57.80;;;;;;5096142;28;20547;-67
2022/01/25 10:34:22;;;;;;;2.65;2.33;;;16.90;57.70;;;;;;5096089;28;20021;-67
2022/01/25 10:36:49;;;;;;;4.95;2.83;;;16.90;57.70;;;;;;5095003;28;20537;-67
2022/01/25 10:39:30;;;;;;;2.75;2.33;;;17.00;57.70;;;;;;5094960;28;20059;-67
2022/01/25 10:42:17;;;;;;;3.05;2.75;;;17.00;57.50;;;;;;5094978;28;20024;-67
2022/01/25 10:45:04;;;;;;;2.80;2.45;;;17.00;57.50;;;;;;5094625;28;20051;-67
2022/01/25 10:47:37;;;;;;;2.78;2.55;;;17.00;57.50;;;;;;5095719;28;20486;-67
2022/01/25 10:50:14;;;;;;;3.88;2.88;;;16.90;57.60;;;;;;5094922;28;20024;-67
2022/01/25 10:52:39;;;;;;;3.78;2.72;;;16.90;57.50;;;;;;5094703;28;20043;-67
2022/01/25 10:55:05;;;;;;;2.58;2.30;;;16.90;57.60;;;;;;5094559;28;20028;-67
2022/01/25 10:57:31;;;;;;;3.63;2.63;;;16.90;57.60;;;;;;5094029;28;20021;-67
2022/01/25 11:00:06;;;;;;;3.03;2.67;;;16.90;57.50;;;;;;5077727;28;20093;-67
2022/01/25 11:02:31;;;;;;;2.88;2.58;;;16.90;57.50;;;;;;5094492;28;20020;-67
2022/01/25 11:05:08;;;;;;;3.00;2.65;;;16.90;57.50;;;;;;5095579;28;20517;-67
2022/01/25 11:07:37;;;;;;;3.38;2.80;;;17.00;57.50;;;;;;5094145;28;20375;-67
2022/01/25 11:10:03;;;;;;;2.72;2.53;;;17.00;57.50;;;;;;5094340;28;20020;-67
2022/01/25 11:12:36;;;;;;;2.47;2.28;;;16.90;57.40;;;;;;5080596;28;20029;-67
2022/01/25 11:15:02;;;;;;;3.17;2.60;;;17.00;57.50;;;;;;5074194;28;20032;-67
2022/01/25 11:17:28;;;;;;;3.97;2.88;;;16.90;57.30;;;;;;5073748;28;20023;-67
2022/01/25 11:19:54;;;;;;;4.25;2.78;;;16.90;57.40;;;;;;5088991;28;20016;-67
2022/01/25 11:22:20;;;;;;;2.97;2.45;;;16.90;57.40;;;;;;5095337;28;20031;-67
2022/01/25 11:24:54;;;;;;;3.00;2.47;;;17.00;57.30;;;;;;5095109;28;20039;-67
2022/01/25 11:27:20;;;;;;;2.65;2.30;;;17.00;57.30;;;;;;5093787;28;20028;-67
2022/01/25 11:29:47;;;;;;;3.22;2.70;;;16.90;57.20;;;;;;5093743;28;20050;-67
2022/01/25 11:32:18;;;;;;;3.08;2.78;;;16.90;57.30;;;;;;5093846;28;20032;-67
2022/01/25 11:34:44;;;;;;;2.72;2.53;;;16.90;57.20;;;;;;5093939;28;20072;-67
2022/01/25 11:37:09;;;;;;;2.55;2.25;;;16.90;57.20;;;;;;5076935;28;20413;-67
2022/01/25 11:39:39;;;;;;;3.15;2.70;;;16.90;57.20;;;;;;5093470;28;20577;-67
2022/01/25 11:42:15;;;;;;;3.38;3.08;;;17.00;57.20;;;;;;5093530;28;20024;-67
2022/01/25 11:44:48;;;;;;;2.83;2.58;;;17.00;57.20;;;;;;5093816;28;20496;-67
2022/01/25 11:47:16;;;;;;;;;;;17.00;57.20;;;;;;5095329;28;20024;-67
2022/01/25 11:50:00;;;;;;;2.50;2.30;;;16.90;57.00;;;;;;5094654;28;19904;-67
2022/01/25 11:52:27;;;;;;;3.20;2.65;;;16.90;57.20;;;;;;5094570;28;20078;-67
2022/01/25 11:54:54;;;;;;;2.65;2.42;;;16.90;57.20;;;;;;5093361;28;20020;-67
2022/01/25 11:57:22;;;;;;;2.92;2.67;;;16.90;57.20;;;;;;5093155;28;20024;-67
2022/01/25 11:59:58;;;;;;;3.38;2.72;;;16.90;57.10;;;;;;5093383;28;20024;-67
2022/01/25 12:02:48;;;;;;;2.83;2.17;;;16.90;57.10;;;;;;5094553;28;20035;-67
2022/01/25 12:05:16;;;;;;;3.60;3.05;;;17.00;56.90;;;;;;5093272;28;20365;-67
2022/01/25 12:08:04;;;;;;;2.80;2.60;;;16.90;57.20;;;;;;5093057;28;20020;-67
2022/01/25 12:10:44;;;;;;;2.50;2.30;;;16.90;56.90;;;;;;5093904;28;20017;-67
2022/01/25 12:13:31;;;;;;;2.90;2.50;;;16.90;57.00;;;;;;5072957;28;20467;-67
2022/01/25 12:16:26;;;;;;;3.03;2.60;;;16.90;56.80;;;;;;5073938;28;20063;-67
2022/01/25 12:18:52;;;;;;;2.58;2.38;;;16.90;56.90;;;;;;5079010;28;20016;-67
2022/01/25 12:21:53;;;;;;;2.90;2.70;;;16.90;57.10;;;;;;5094261;28;20438;-67
2022/01/25 12:24:32;;;;;;;3.20;2.88;;;16.90;56.80;;;;;;5093771;28;20594;-67
2022/01/25 12:27:28;;;;;;;3.70;2.55;;;16.90;57.00;;;;;;5092989;28;20474;-67
2022/01/25 12:30:14;;;;;;;3.30;2.90;;;16.90;57.00;;;;;;5093260;28;20162;-67
2022/01/25 12:33:04;;;;;;;3.30;2.58;;;16.90;57.00;;;;;;5093814;28;20020;-67
2022/01/25 12:35:32;;;;;;;4.40;2.70;;;16.90;56.90;;;;;;5093708;28;20020;-67
2022/01/25 12:37:59;;;;;;;2.80;2.50;;;16.90;56.90;;;;;;5093999;28;20090;-67
2022/01/25 12:40:24;;;;;;;3.83;2.90;;;16.90;56.90;;;;;;5092277;28;20016;-67
2022/01/25 12:43:06;;;;;;;2.72;2.53;;;16.90;56.90;;;;;;5093533;28;20031;-67
2022/01/25 12:45:43;;;;;;;2.90;2.60;;;16.90;56.80;;;;;;5092651;28;20024;-67
2022/01/25 12:48:14;;;;;;;3.17;2.90;;;16.90;56.80;;;;;;5092511;28;20028;-67
2022/01/25 12:50:41;;;;;;;3.22;2.38;;;16.90;56.80;;;;;;5092572;28;20024;-67
2022/01/25 12:53:08;;;;;;;2.88;2.58;;;16.90;56.70;;;;;;5091918;28;20032;-67
2022/01/25 12:55:37;;;;;;;3.08;2.67;;;16.90;56.80;;;;;;5093248;28;20440;-67
2022/01/25 12:58:03;;;;;;;3.00;2.70;;;16.90;56.70;;;;;;5092466;28;20020;-67
2022/01/25 13:00:30;;;;;;;2.45;2.28;;;16.90;56.70;;;;;;5092313;28;20382;-67
2022/01/25 13:03:16;;;;;;;3.35;2.90;;;16.90;56.70;;;;;;5091943;28;20032;-67
2022/01/25 13:05:47;;;;;;;3.17;2.80;;;17.00;56.60;;;;;;5092154;28;20024;-67
2022/01/25 13:08:23;;;;;;;2.70;2.50;;;16.90;56.60;;;;;;5091669;28;20081;-67
2022/01/25 13:10:50;;;;;;;3.00;2.70;;;16.90;56.60;;;;;;5091664;28;20048;-67
2022/01/25 13:13:45;;;;;;;2.58;2.38;;;16.90;56.60;;;;;;5071755;28;20515;-67
2022/01/25 13:16:04;;;;;;;2.97;2.70;;;16.90;56.60;;;;;;5071508;28;20044;-67
2022/01/25 13:18:31;;;;;;;2.47;2.28;;;16.90;56.60;;;;;;5076112;28;20065;-67
2022/01/25 13:21:07;;;;;;;4.20;2.50;;;16.90;56.60;;;;;;5091803;28;20081;-67
2022/01/25 13:23:33;;;;;;;3.63;2.90;;;17.00;56.50;;;;;;5091605;28;20039;-67
2022/01/25 13:26:12;;;;;;;2.72;2.42;;;16.90;56.50;;;;;;5092920;28;20020;-67
2022/01/25 13:31:16;;;;;;;3.40;2.90;;;16.90;56.50;;;;;;5092902;28;20432;-67
2022/01/25 13:33:43;;;;;;;3.00;2.70;;;16.90;56.50;;;;;;5091507;28;20024;-67
2022/01/25 13:36:09;;;;;;;3.60;3.20;;;16.90;56.50;;;;;;5091709;28;20020;-67
2022/01/25 13:38:36;;;;;;;3.22;2.90;;;16.90;56.40;;;;;;5091171;28;20059;-67
2022/01/25 13:46:06;;;;;;;3.47;3.15;;;16.90;56.40;;;;;;5090766;28;20028;-67
2022/01/25 13:48:32;;;;;;;2.83;2.63;;;17.00;56.40;;;;;;5091429;28;20398;-67
2022/01/25 13:50:59;;;;;;;2.88;2.67;;;16.90;56.30;;;;;;5092386;28;20025;-67
2022/01/25 13:53:26;;;;;;;3.10;2.80;;;17.00;56.40;;;;;;5091285;28;20607;-67
2022/01/25 13:55:54;;;;;;;2.95;2.67;;;17.00;56.30;;;;;;5091203;28;20478;-67
2022/01/25 13:58:28;;;;;;;3.20;2.90;;;17.00;56.40;;;;;;5091371;28;20017;-67
2022/01/25 14:00:55;;;;;;;3.88;3.20;;;17.00;56.30;;;;;;5091347;28;20021;-67
2022/01/25 14:03:32;;;;;;;3.22;2.92;;;16.90;56.30;;;;;;5091323;28;20024;-67
2022/01/25 14:05:58;;;;;;;3.10;2.80;;;17.00;56.20;;;;;;5092136;28;20020;-67
2022/01/25 14:08:42;;;;;;;3.25;2.58;;;17.00;56.30;;;;;;5091093;28;20027;-67
2022/01/25 14:11:34;;;;;;;3.33;3.03;;;16.90;56.10;;;;;;5088117;28;20021;-67
2022/01/25 14:25:04;;;;;;;3.00;2.63;;;16.90;56.20;;;;;;5091226;28;20035;-67
2022/01/25 14:27:35;;;;;;;2.97;2.78;;;16.90;56.30;;;;;;5090795;28;20055;-67
2022/01/25 14:30:00;;;;;;;3.13;2.80;;;16.90;56.20;;;;;;5091058;28;20763;-67
2022/01/25 14:32:35;;;;;;;3.25;2.88;;;16.90;56.20;;;;;;5091960;28;20027;-67
2022/01/25 14:35:11;;;;;;;3.08;2.78;;;16.90;56.10;;;;;;5090420;28;20027;-67
2022/01/25 14:37:47;;;;;;;3.60;3.20;;;17.00;56.10;;;;;;5091076;28;20016;-67
2022/01/25 14:40:14;;;;;;;3.30;3.00;;;16.90;56.10;;;;;;5090873;28;20021;-67
2022/01/25 14:42:40;;;;;;;4.30;3.30;;;16.90;56.10;;;;;;5091025;28;20020;-67
2022/01/25 14:45:08;;;;;;;3.75;3.25;;;16.90;56.10;;;;;;5090814;28;20502;-67
2022/01/25 14:47:38;;;;;;;3.60;3.15;;;16.90;56.10;;;;;;5091818;28;20454;-67
2022/01/25 14:50:14;;;;;;;3.08;2.78;;;16.90;56.00;;;;;;5091665;28;20020;-67
2022/01/25 14:52:40;;;;;;;2.83;2.53;;;17.00;56.10;;;;;;5090955;28;20107;-67
2022/01/25 14:55:19;;;;;;;3.38;3.03;;;16.90;56.10;;;;;;5091749;28;20098;-67
2022/01/25 14:58:02;;;;;;;3.22;2.88;;;16.90;55.90;;;;;;5093044;28;20034;-67
2022/01/25 15:00:28;;;;;;;3.30;3.00;;;17.00;56.10;;;;;;5094592;28;20028;-67
2022/01/25 15:02:54;;;;;;;3.70;2.85;;;16.90;56.00;;;;;;5094433;28;20115;-67
2022/01/25 15:05:19;;;;;;;3.13;2.83;;;16.90;56.00;;;;;;5095318;28;20028;-67
2022/01/25 15:07:45;;;;;;;3.55;2.80;;;16.90;56.00;;;;;;5095431;28;20067;-67